createdAt,value
2018-12-14T00:02:10.993Z,3.40
2018-12-14T00:04:38.596Z,3.90
2018-12-14T00:07:06.161Z,3.73
2018-12-14T00:09:33.711Z,3.47
2018-12-14T00:12:01.255Z,3.90
2018-12-14T00:14:28.866Z,4.13
2018-12-14T00:16:56.428Z,3.77
2018-12-14T00:19:24.097Z,3.03
2018-12-14T00:21:51.644Z,3.47
2018-12-14T00:24:19.259Z,3.73
2018-12-14T00:26:47.205Z,3.47
2018-12-14T00:29:14.732Z,3.53
2018-12-14T00:31:42.275Z,3.10
2018-12-14T00:34:09.769Z,3.60
2018-12-14T00:36:37.373Z,3.00
2018-12-14T00:39:05.647Z,4.07
2018-12-14T00:41:33.267Z,3.40
2018-12-14T00:44:00.758Z,3.70
2018-12-14T00:46:28.289Z,3.70
2018-12-14T00:48:55.887Z,3.57
2018-12-14T00:51:23.411Z,3.80
2018-12-14T00:53:51.021Z,4.20
2018-12-14T00:56:18.569Z,3.90
2018-12-14T00:58:46.055Z,3.77
2018-12-14T01:01:13.566Z,3.97
2018-12-14T01:03:41.135Z,3.53
2018-12-14T01:06:08.664Z,4.30
2018-12-14T01:08:36.235Z,4.17
2018-12-14T01:11:03.786Z,4.13
2018-12-14T01:13:31.273Z,4.23
2018-12-14T01:15:58.762Z,4.40
2018-12-14T01:18:26.289Z,4.03
2018-12-14T01:20:53.855Z,4.07
2018-12-14T01:23:21.350Z,3.87
2018-12-14T01:25:50.229Z,4.40
2018-12-14T01:28:17.721Z,3.83
2018-12-14T01:30:45.255Z,3.73
2018-12-14T01:33:12.768Z,3.63
2018-12-14T01:35:40.395Z,4.63
2018-12-14T01:38:07.993Z,4.07
2018-12-14T01:40:35.535Z,4.23
2018-12-14T01:43:03.061Z,4.20
2018-12-14T01:45:30.672Z,4.55
2018-12-14T01:47:58.205Z,4.73
2018-12-14T01:50:25.842Z,4.40
2018-12-14T01:52:53.371Z,4.57
2018-12-14T01:55:20.975Z,4.00
2018-12-14T01:57:49.025Z,4.10
2018-12-14T02:00:16.659Z,4.53
2018-12-14T02:02:44.187Z,3.87
2018-12-14T02:05:11.710Z,4.67
2018-12-14T02:07:39.414Z,4.83
2018-12-14T02:10:06.970Z,5.20
2018-12-14T02:12:34.657Z,4.73
2018-12-14T02:15:02.247Z,4.20
2018-12-14T02:17:29.762Z,4.50
2018-12-14T02:19:57.315Z,4.30
2018-12-14T02:22:24.940Z,4.53
2018-12-14T02:24:52.537Z,3.53
2018-12-14T02:27:20.022Z,4.60
2018-12-14T02:29:47.585Z,4.30
2018-12-14T02:32:15.120Z,4.67
2018-12-14T02:34:42.673Z,4.30
2018-12-14T02:37:10.278Z,4.83
2018-12-14T02:39:37.770Z,4.13
2018-12-14T02:42:05.322Z,4.00
2018-12-14T02:44:32.832Z,4.57
2018-12-14T02:47:00.349Z,3.40
2018-12-14T02:49:27.864Z,4.10
2018-12-14T02:51:55.350Z,3.83
2018-12-14T02:54:23.585Z,4.37
2018-12-14T02:56:51.077Z,4.10
2018-12-14T02:59:18.617Z,4.97
2018-12-14T03:01:46.173Z,4.10
2018-12-14T03:04:13.692Z,4.40
2018-12-14T03:06:41.231Z,4.12
2018-12-14T03:09:08.864Z,3.93
2018-12-14T03:11:36.373Z,4.10
2018-12-14T03:14:03.914Z,3.70
2018-12-14T03:16:31.493Z,4.10
2018-12-14T03:18:58.975Z,4.00
2018-12-14T03:21:26.516Z,4.13
2018-12-14T03:23:54.796Z,4.07
2018-12-14T03:26:22.319Z,3.87
2018-12-14T03:28:49.845Z,3.80
2018-12-14T03:31:17.353Z,3.80
2018-12-14T03:33:44.852Z,3.97
2018-12-14T03:36:12.382Z,4.10
2018-12-14T03:38:40.108Z,4.20
2018-12-14T03:41:07.694Z,4.23
2018-12-14T03:43:35.227Z,4.00
2018-12-14T03:46:02.766Z,3.50
2018-12-14T03:48:30.327Z,3.20
2018-12-14T03:50:57.866Z,3.20
2018-12-14T03:53:25.988Z,3.15
2018-12-14T03:55:53.490Z,3.17
2018-12-14T03:58:21.028Z,3.50
2018-12-14T04:00:48.658Z,3.57
2018-12-14T04:03:16.148Z,3.83
2018-12-14T04:05:43.698Z,3.33
2018-12-14T04:08:11.272Z,3.60
2018-12-14T04:10:38.815Z,3.53
2018-12-14T04:13:06.544Z,2.90
2018-12-14T04:15:34.052Z,3.67
2018-12-14T04:18:01.562Z,3.40
2018-12-14T04:20:29.099Z,4.17
2018-12-14T04:22:57.174Z,3.93
2018-12-14T04:25:24.692Z,4.30
2018-12-14T04:27:52.278Z,3.67
2018-12-14T04:30:19.798Z,3.23
2018-12-14T04:32:47.335Z,3.67
2018-12-14T04:35:14.909Z,3.40
2018-12-14T04:37:42.419Z,3.70
2018-12-14T04:40:09.995Z,3.57
2018-12-14T04:42:37.860Z,3.10
2018-12-14T04:45:05.730Z,3.27
2018-12-14T04:47:33.392Z,3.93
2018-12-14T04:50:00.942Z,3.90
2018-12-14T04:52:28.482Z,4.20
2018-12-14T04:54:56.030Z,3.70
2018-12-14T04:57:23.572Z,4.40
2018-12-14T04:59:51.094Z,3.73
2018-12-14T05:02:18.682Z,3.80
2018-12-14T05:04:46.202Z,4.40
2018-12-14T05:07:13.715Z,4.47
2018-12-14T05:09:41.302Z,4.37
2018-12-14T05:12:08.876Z,3.73
2018-12-14T05:14:36.386Z,4.30
2018-12-14T05:17:04.045Z,3.90
2018-12-14T05:19:31.588Z,3.60
2018-12-14T05:21:59.507Z,3.60
2018-12-14T05:24:27.041Z,3.73
2018-12-14T05:26:55.622Z,3.50
2018-12-14T05:29:23.141Z,3.40
2018-12-14T05:31:50.658Z,3.90
2018-12-14T05:34:18.174Z,3.37
2018-12-14T05:36:45.928Z,3.67
2018-12-14T05:39:13.561Z,3.63
2018-12-14T05:41:41.071Z,3.50
2018-12-14T05:44:09.509Z,3.92
2018-12-14T05:46:37.113Z,3.67
2018-12-14T05:49:04.686Z,3.30
2018-12-14T05:51:33.177Z,3.47
2018-12-14T05:54:00.714Z,4.07
2018-12-14T05:56:28.680Z,3.90
2018-12-14T05:58:56.175Z,3.67
2018-12-14T06:01:23.751Z,3.60
2018-12-14T06:03:51.646Z,3.57
2018-12-14T06:06:19.275Z,3.70
2018-12-14T06:08:46.965Z,3.57
2018-12-14T06:11:14.501Z,3.77
2018-12-14T06:13:42.097Z,4.13
2018-12-14T06:16:09.674Z,4.20
2018-12-14T06:18:37.214Z,4.00
2018-12-14T06:21:04.791Z,3.37
2018-12-14T06:23:32.306Z,3.93
2018-12-14T06:25:59.816Z,3.53
2018-12-14T06:28:27.378Z,3.90
2018-12-14T06:30:54.906Z,3.17
2018-12-14T06:33:22.541Z,3.83
2018-12-14T06:35:50.059Z,3.33
2018-12-14T06:38:18.365Z,3.37
2018-12-14T06:40:45.913Z,3.50
2018-12-14T06:43:15.577Z,3.67
2018-12-14T06:45:43.364Z,13.23
2018-12-14T06:48:10.926Z,4.00
2018-12-14T06:50:39.602Z,3.27
2018-12-14T06:53:07.349Z,3.77
2018-12-14T06:55:35.800Z,3.90
2018-12-14T06:58:03.293Z,3.80
2018-12-14T07:00:30.847Z,4.27
2018-12-14T07:02:58.350Z,4.23
2018-12-14T07:05:25.840Z,4.07
2018-12-14T07:07:53.375Z,4.00
2018-12-14T07:10:20.902Z,4.50
2018-12-14T07:12:48.415Z,4.50
2018-12-14T07:15:16.061Z,4.03
2018-12-14T07:17:43.811Z,4.63
2018-12-14T07:20:11.383Z,5.07
2018-12-14T07:22:38.905Z,4.57
2018-12-14T07:25:07.257Z,5.53
2018-12-14T07:27:34.826Z,4.90
2018-12-14T07:30:02.514Z,5.20
2018-12-14T07:32:30.018Z,6.53
2018-12-14T07:34:57.500Z,6.03
2018-12-14T07:37:25.100Z,6.50
2018-12-14T07:39:52.597Z,6.33
2018-12-14T07:42:20.127Z,6.90
2018-12-14T07:44:47.731Z,6.30
2018-12-14T07:47:15.499Z,6.77
2018-12-14T07:49:43.037Z,7.20
2018-12-14T07:52:10.549Z,6.70
2018-12-14T07:54:38.467Z,6.30
2018-12-14T07:57:06.043Z,7.00
2018-12-14T07:59:33.595Z,7.17
2018-12-14T08:02:01.115Z,6.73
2018-12-14T08:04:29.159Z,6.67
2018-12-14T08:06:57.124Z,6.87
2018-12-14T08:09:24.772Z,6.63
2018-12-14T08:11:52.314Z,7.20
2018-12-14T08:14:19.838Z,6.70
2018-12-14T08:16:47.357Z,7.13
2018-12-14T08:19:14.873Z,8.03
2018-12-14T08:21:42.371Z,7.80
2018-12-14T08:24:09.942Z,7.13
2018-12-14T08:26:37.600Z,7.90
2018-12-14T08:29:05.219Z,7.27
2018-12-14T08:31:32.702Z,7.63
2018-12-14T08:34:00.340Z,8.20
2018-12-14T08:36:27.846Z,7.90
2018-12-14T08:38:55.460Z,8.10
2018-12-14T08:41:23.007Z,8.13
2018-12-14T08:43:50.509Z,7.83
2018-12-14T08:46:18.048Z,8.43
2018-12-14T08:48:45.538Z,8.57
2018-12-14T08:51:13.051Z,7.20
2018-12-14T08:53:41.070Z,8.00
2018-12-14T08:56:08.558Z,7.60
2018-12-14T08:58:36.136Z,7.83
2018-12-14T09:01:03.622Z,7.77
2018-12-14T09:03:31.230Z,8.57
2018-12-14T09:05:58.778Z,8.73
2018-12-14T09:08:26.374Z,8.13
2018-12-14T09:10:53.971Z,8.50
2018-12-14T09:13:21.475Z,8.87
2018-12-14T09:15:48.956Z,8.50
2018-12-14T09:18:16.456Z,8.30
2018-12-14T09:20:43.962Z,8.43
2018-12-14T09:23:12.197Z,8.20
2018-12-14T09:25:39.696Z,7.97
2018-12-14T09:28:07.247Z,8.43
2018-12-14T09:30:34.820Z,8.07
2018-12-14T09:33:02.319Z,8.23
2018-12-14T09:35:29.840Z,7.63
2018-12-14T09:37:57.312Z,7.70
2018-12-14T09:40:24.982Z,7.77
2018-12-14T09:42:52.548Z,8.37
2018-12-14T09:45:20.229Z,7.87
2018-12-14T09:47:47.719Z,7.87
2018-12-14T09:50:15.364Z,8.03
2018-12-14T09:52:43.460Z,8.77
2018-12-14T09:55:11.116Z,8.10
2018-12-14T09:57:38.675Z,8.17
2018-12-14T10:00:06.461Z,9.33
2018-12-14T10:02:34.002Z,8.57
2018-12-14T10:05:01.544Z,8.90
2018-12-14T10:07:29.069Z,8.30
2018-12-14T10:09:56.612Z,8.80
2018-12-14T10:12:24.219Z,7.40
2018-12-14T10:14:51.738Z,8.20
2018-12-14T10:17:19.445Z,8.00
2018-12-14T10:19:46.996Z,8.33
2018-12-14T10:22:14.798Z,8.48
2018-12-14T10:24:42.535Z,8.30
2018-12-14T10:27:10.135Z,7.90
2018-12-14T10:29:37.625Z,7.70
2018-12-14T10:32:05.132Z,8.07
2018-12-14T10:34:32.640Z,7.47
2018-12-14T10:37:00.153Z,8.07
2018-12-14T10:39:27.646Z,7.40
2018-12-14T10:41:55.213Z,7.80
2018-12-14T10:44:22.722Z,7.60
2018-12-14T10:46:50.318Z,7.53
2018-12-14T10:49:17.856Z,7.47
2018-12-14T10:51:46.400Z,7.60
2018-12-14T10:54:13.897Z,8.00
2018-12-14T10:56:41.413Z,7.90
2018-12-14T10:59:08.941Z,8.30
2018-12-14T11:01:42.280Z,7.47
2018-12-14T11:04:09.767Z,8.00
2018-12-14T11:06:37.251Z,7.70
2018-12-14T11:09:05.666Z,7.63
2018-12-14T11:11:33.247Z,7.45
2018-12-14T11:14:00.761Z,8.13
2018-12-14T11:16:28.287Z,7.50
2018-12-14T11:18:55.954Z,8.00
2018-12-14T11:21:23.488Z,8.00
2018-12-14T11:23:51.002Z,7.77
2018-12-14T11:26:18.652Z,7.47
2018-12-14T11:28:46.257Z,7.97
2018-12-14T11:31:14.752Z,6.63
2018-12-14T11:33:42.261Z,7.20
2018-12-14T11:36:09.756Z,7.83
2018-12-14T11:38:37.363Z,8.07
2018-12-14T11:41:05.023Z,8.07
2018-12-14T11:43:32.571Z,8.33
2018-12-14T11:46:00.133Z,7.87
2018-12-14T11:48:27.630Z,8.30
2018-12-14T11:50:55.195Z,8.27
2018-12-14T11:53:22.754Z,7.67
2018-12-14T11:55:50.266Z,8.17
2018-12-14T11:58:18.730Z,8.77
2018-12-14T12:00:46.320Z,7.87
2018-12-14T12:03:13.842Z,7.53
2018-12-14T12:05:41.339Z,7.30
2018-12-14T12:08:09.177Z,7.23
2018-12-14T12:10:36.666Z,8.33
2018-12-14T12:13:04.191Z,7.40
2018-12-14T12:15:31.775Z,7.87
2018-12-14T12:17:59.263Z,7.87
2018-12-14T12:20:26.841Z,8.10
2018-12-14T12:22:54.419Z,7.30
2018-12-14T12:25:22.000Z,6.93
2018-12-14T12:27:50.127Z,7.50
2018-12-14T12:30:17.743Z,8.00
2018-12-14T12:32:45.291Z,8.03
2018-12-14T12:35:12.872Z,8.90
2018-12-14T12:37:40.466Z,8.20
2018-12-14T12:40:08.130Z,8.13
2018-12-14T12:42:35.791Z,7.80
2018-12-14T12:45:03.459Z,8.10
2018-12-14T12:47:30.974Z,8.03
2018-12-14T12:49:58.608Z,7.70
2018-12-14T12:52:26.152Z,7.83
2018-12-14T12:54:53.724Z,7.73
2018-12-14T12:57:21.280Z,8.00
2018-12-14T12:59:48.825Z,7.60
2018-12-14T13:02:16.385Z,8.40
2018-12-14T13:04:44.158Z,8.27
2018-12-14T13:07:11.657Z,7.73
2018-12-14T13:09:39.169Z,8.00
2018-12-14T13:12:06.733Z,8.07
2018-12-14T13:14:39.857Z,7.70
2018-12-14T13:17:03.994Z,8.00
2018-12-14T13:19:31.611Z,8.20
2018-12-14T13:21:59.106Z,8.10
2018-12-14T13:24:26.632Z,8.13
2018-12-14T13:26:54.574Z,8.67
2018-12-14T13:29:22.636Z,7.90
2018-12-14T13:31:50.625Z,8.83
2018-12-14T13:34:18.253Z,8.43
2018-12-14T13:36:45.769Z,7.63
2018-12-14T13:39:13.324Z,8.80
2018-12-14T13:41:40.856Z,8.80
2018-12-14T13:44:08.456Z,8.60
2018-12-14T13:46:36.026Z,8.03
2018-12-14T13:49:03.628Z,8.57
2018-12-14T13:51:31.240Z,7.67
2018-12-14T13:53:58.932Z,8.47
2018-12-14T13:56:26.598Z,8.77
2018-12-14T13:58:54.160Z,8.90
2018-12-14T14:01:21.678Z,9.37
2018-12-14T14:03:49.273Z,8.03
2018-12-14T14:06:16.862Z,8.17
2018-12-14T14:08:44.358Z,8.83
2018-12-14T14:11:11.888Z,9.17
2018-12-14T14:13:39.634Z,9.00
2018-12-14T14:16:07.234Z,8.77
2018-12-14T14:18:34.866Z,9.13
2018-12-14T14:21:02.408Z,9.90
2018-12-14T14:23:29.918Z,9.20
2018-12-14T14:25:57.435Z,9.93
2018-12-14T14:28:25.186Z,10.13
2018-12-14T14:30:52.798Z,9.60
2018-12-14T14:33:20.333Z,9.60
2018-12-14T14:35:47.866Z,9.03
2018-12-14T14:38:15.368Z,8.80
2018-12-14T14:40:43.360Z,8.90
2018-12-14T14:43:10.913Z,9.33
2018-12-14T14:45:38.552Z,9.10
2018-12-14T14:48:06.128Z,8.13
2018-12-14T14:50:33.657Z,9.00
2018-12-14T14:53:01.235Z,9.10
2018-12-14T14:55:28.781Z,9.47
2018-12-14T14:57:56.687Z,8.63
2018-12-14T15:00:24.270Z,9.27
2018-12-14T15:02:52.046Z,9.50
2018-12-14T15:05:19.585Z,10.53
2018-12-14T15:07:47.085Z,8.90
2018-12-14T15:10:14.691Z,8.93
2018-12-14T15:12:42.376Z,8.50
2018-12-14T15:15:09.885Z,9.57
2018-12-14T15:17:37.446Z,9.30
2018-12-14T15:20:05.185Z,9.30
2018-12-14T15:22:32.792Z,9.57
2018-12-14T15:25:00.355Z,10.50
2018-12-14T15:27:27.901Z,9.20
2018-12-14T15:29:55.448Z,10.90
2018-12-14T15:32:23.129Z,9.47
2018-12-14T15:34:50.711Z,10.17
2018-12-14T15:37:18.369Z,10.33
2018-12-14T15:39:46.040Z,10.03
2018-12-14T15:42:13.574Z,10.23
2018-12-14T15:44:41.101Z,9.85
2018-12-14T15:47:08.671Z,11.07
2018-12-14T15:49:36.188Z,10.47
2018-12-14T15:52:03.763Z,10.40
2018-12-14T15:54:31.262Z,10.00
2018-12-14T15:56:59.050Z,10.37
2018-12-14T15:59:26.715Z,10.40
2018-12-14T16:01:54.300Z,9.87
2018-12-14T16:04:21.930Z,11.53
2018-12-14T16:06:49.531Z,11.10
2018-12-14T16:09:17.044Z,10.67
2018-12-14T16:11:44.564Z,10.40
2018-12-14T16:14:12.122Z,11.43
2018-12-14T16:16:39.780Z,10.57
2018-12-14T16:19:07.409Z,10.50
2018-12-14T16:21:35.063Z,10.93
2018-12-14T16:24:02.577Z,10.33
2018-12-14T16:26:30.449Z,11.37
2018-12-14T16:28:58.019Z,11.20
2018-12-14T16:31:25.761Z,10.07
2018-12-14T16:33:53.324Z,11.27
2018-12-14T16:36:20.864Z,11.70
2018-12-14T16:38:48.369Z,11.53
2018-12-14T16:41:15.917Z,11.97
2018-12-14T16:43:43.467Z,11.70
2018-12-14T16:46:11.051Z,12.50
2018-12-14T16:48:38.571Z,11.47
2018-12-14T16:51:06.131Z,12.17
2018-12-14T16:53:35.689Z,12.57
2018-12-14T16:56:03.214Z,12.23
2018-12-14T16:58:31.737Z,12.97
2018-12-14T17:00:59.237Z,11.43
2018-12-14T17:03:26.748Z,12.63
2018-12-14T17:05:54.315Z,12.57
2018-12-14T17:08:21.876Z,12.80
2018-12-14T17:10:49.416Z,12.50
2018-12-14T17:13:17.467Z,13.50
2018-12-14T17:15:45.007Z,11.70
2018-12-14T17:18:12.642Z,12.07
2018-12-14T17:20:40.222Z,13.20
2018-12-14T17:23:07.761Z,12.83
2018-12-14T17:25:36.145Z,13.03
2018-12-14T17:28:04.436Z,12.50
2018-12-14T17:30:33.345Z,11.60
2018-12-14T17:33:01.779Z,13.17
2018-12-14T17:35:29.360Z,12.63
2018-12-14T17:37:56.895Z,12.30
2018-12-14T17:40:24.494Z,12.83
2018-12-14T17:42:52.771Z,12.20
2018-12-14T17:45:20.290Z,11.83
2018-12-14T17:47:47.842Z,13.00
2018-12-14T17:50:15.395Z,13.87
2018-12-14T17:52:43.639Z,12.47
2018-12-14T17:55:11.185Z,12.80
2018-12-14T17:57:38.732Z,13.03
2018-12-14T18:00:08.214Z,13.57
2018-12-14T18:02:35.762Z,14.17
2018-12-14T18:05:04.844Z,13.50
2018-12-14T18:07:33.201Z,12.80
2018-12-14T18:10:00.883Z,12.20
2018-12-14T18:12:28.467Z,13.43
2018-12-14T18:14:55.991Z,14.33
2018-12-14T18:17:23.539Z,14.80
2018-12-14T18:19:51.161Z,13.73
2018-12-14T18:22:19.273Z,14.00
2018-12-14T18:24:48.627Z,13.53
2018-12-14T18:27:16.923Z,13.77
2018-12-14T18:29:44.549Z,14.97
2018-12-14T18:32:13.538Z,13.77
2018-12-14T18:34:41.709Z,14.93
2018-12-14T18:37:09.361Z,15.97
2018-12-14T18:39:36.937Z,14.77
2018-12-14T18:42:04.505Z,14.60
2018-12-14T18:44:32.080Z,15.83
2018-12-14T18:46:59.645Z,16.20
2018-12-14T18:49:27.174Z,14.80
2018-12-14T18:51:54.725Z,15.77
2018-12-14T18:54:22.281Z,16.00
2018-12-14T18:56:49.810Z,16.43
2018-12-14T18:59:18.520Z,16.80
2018-12-14T19:01:46.909Z,16.87
2018-12-14T19:04:14.542Z,16.20
2018-12-14T19:06:42.066Z,16.67
2018-12-14T19:09:09.630Z,18.03
2018-12-14T19:11:37.183Z,17.17
2018-12-14T19:14:04.749Z,17.03
2018-12-14T19:16:32.388Z,16.90
2018-12-14T19:18:59.928Z,16.93
2018-12-14T19:21:28.141Z,16.87
2018-12-14T19:23:56.333Z,16.77
2018-12-14T19:26:23.884Z,16.30
2018-12-14T19:28:51.428Z,16.57
2018-12-14T19:31:19.001Z,17.57
2018-12-14T19:33:46.568Z,16.97
2018-12-14T19:36:14.256Z,17.03
2018-12-14T19:38:41.806Z,16.37
2018-12-14T19:41:10.431Z,17.00
2018-12-14T19:43:38.492Z,16.77
2018-12-14T19:46:06.431Z,18.17
2018-12-14T19:48:34.429Z,17.67
2018-12-14T19:51:02.764Z,17.80
2018-12-14T19:53:30.323Z,17.40
2018-12-14T19:55:57.873Z,18.17
2018-12-14T19:58:26.771Z,17.83
2018-12-14T20:00:56.747Z,16.50
2018-12-14T20:03:24.321Z,17.90
2018-12-14T20:05:52.530Z,18.10
2018-12-14T20:08:20.087Z,18.90
2018-12-14T20:10:49.437Z,18.57
2018-12-14T20:13:17.050Z,18.60
2018-12-14T20:15:45.503Z,19.27
2018-12-14T20:18:13.127Z,20.27
2018-12-14T20:20:41.368Z,20.93
2018-12-14T20:23:09.598Z,20.93
2018-12-14T20:25:37.163Z,21.00
2018-12-14T20:28:04.793Z,21.40
2018-12-14T20:30:32.323Z,22.07
2018-12-14T20:32:59.855Z,21.07
2018-12-14T20:35:27.472Z,22.90
2018-12-14T20:37:56.697Z,21.77
2018-12-14T20:40:24.251Z,21.50
2018-12-14T20:42:51.787Z,21.93
2018-12-14T20:45:20.136Z,22.30
2018-12-14T20:47:47.675Z,21.60
2018-12-14T20:50:15.270Z,22.77
2018-12-14T20:52:44.389Z,23.83
2018-12-14T20:55:11.931Z,24.33
2018-12-14T20:57:39.456Z,24.83
2018-12-14T21:00:08.442Z,23.27
2018-12-14T21:02:36.907Z,22.53
2018-12-14T21:05:05.593Z,23.37
2018-12-14T21:07:33.811Z,23.90
2018-12-14T21:10:08.307Z,23.37
2018-12-14T21:12:36.214Z,23.63
2018-12-14T21:15:04.953Z,22.20
2018-12-14T21:17:32.501Z,22.63
2018-12-14T21:20:00.345Z,24.43
2018-12-14T21:22:28.748Z,23.60
2018-12-14T21:24:56.368Z,22.57
2018-12-14T21:27:24.809Z,23.63
2018-12-14T21:29:52.724Z,24.23
2018-12-14T21:32:20.277Z,23.00
2018-12-14T21:37:21.984Z,23.83
2018-12-14T21:39:50.275Z,23.13
2018-12-14T21:42:17.847Z,23.80
2018-12-14T21:44:45.374Z,22.97
2018-12-14T21:47:13.867Z,23.30
2018-12-14T21:49:41.463Z,22.97
2018-12-14T21:52:09.085Z,22.70
2018-12-14T21:54:36.640Z,22.63
2018-12-14T21:57:04.785Z,22.47
2018-12-14T21:59:32.327Z,23.23
2018-12-14T22:02:01.192Z,22.33
2018-12-14T22:04:31.134Z,22.37
2018-12-14T22:06:59.309Z,21.23
2018-12-14T22:09:26.979Z,21.93
2018-12-14T22:11:54.569Z,22.47
2018-12-14T22:14:22.086Z,22.87
2018-12-14T22:16:49.631Z,21.57
2018-12-14T22:19:17.419Z,21.07
2018-12-14T22:21:44.965Z,22.00
2018-12-14T22:24:13.353Z,21.53
2018-12-14T22:26:40.911Z,19.87
2018-12-14T22:29:08.576Z,21.27
2018-12-14T22:31:36.155Z,20.97
2018-12-14T22:34:03.754Z,21.03
2018-12-14T22:36:31.270Z,21.27
2018-12-14T22:38:58.812Z,21.73
2018-12-14T22:41:26.415Z,21.00
2018-12-14T22:43:54.005Z,20.83
2018-12-14T22:46:21.525Z,19.33
2018-12-14T22:48:49.061Z,20.33
2018-12-14T22:51:16.598Z,20.77
2018-12-14T22:53:44.162Z,19.47
2018-12-14T22:56:11.704Z,17.93
2018-12-14T22:58:39.287Z,19.27
2018-12-14T23:01:06.875Z,19.30
2018-12-14T23:03:34.442Z,19.23
2018-12-14T23:06:01.953Z,19.27
2018-12-14T23:08:29.459Z,18.80
2018-12-14T23:10:56.986Z,18.93
2018-12-14T23:13:25.517Z,19.20
2018-12-14T23:15:53.190Z,18.60
2018-12-14T23:18:20.731Z,17.20
2018-12-14T23:20:48.253Z,18.40
2018-12-14T23:23:15.799Z,17.97
2018-12-14T23:25:43.367Z,17.57
2018-12-14T23:28:10.892Z,16.87
2018-12-14T23:30:38.420Z,17.80
2018-12-14T23:33:05.959Z,17.03
2018-12-14T23:35:33.521Z,17.30
2018-12-14T23:38:01.111Z,16.80
2018-12-14T23:40:28.651Z,16.13
2018-12-14T23:42:56.600Z,17.17
2018-12-14T23:45:24.132Z,15.90
2018-12-14T23:47:51.717Z,15.10
2018-12-14T23:50:19.258Z,16.60
2018-12-14T23:52:47.153Z,16.07
2018-12-14T23:55:14.746Z,15.63
2018-12-14T23:57:42.313Z,15.57
